sensor_id;sensor_type;location;lat;lon;timestamp;pressure;altitude;pressure_sealevel;temperature;humidity
70841;BME280;58465;51.534;9.934;2023-02-05T00:01:16;102177.78;;;0.89;73.10
70841;BME280;58465;51.534;9.934;2023-02-05T00:03:41;102176.66;;;0.84;73.12
70841;BME280;58465;51.534;9.934;2023-02-05T00:06:07;102182.03;;;0.87;73.02
70841;BME280;58465;51.534;9.934;2023-02-05T00:08:33;102178.22;;;0.80;72.88
70841;BME280;58465;51.534;9.934;2023-02-05T00:10:59;102181.13;;;0.68;72.98
70841;BME280;58465;51.534;9.934;2023-02-05T00:13:31;102182.78;;;0.66;73.18
70841;BME280;58465;51.534;9.934;2023-02-05T00:15:56;102183.59;;;0.65;73.27
70841;BME280;58465;51.534;9.934;2023-02-05T00:18:22;102182.44;;;0.60;73.18
70841;BME280;58465;51.534;9.934;2023-02-05T00:20:47;102182.31;;;0.57;73.33
70841;BME280;58465;51.534;9.934;2023-02-05T00:23:12;102170.00;;;0.56;73.34
70841;BME280;58465;51.534;9.934;2023-02-05T00:25:37;102159.47;;;0.56;73.50
70841;BME280;58465;51.534;9.934;2023-02-05T00:28:03;102163.81;;;0.56;73.33
70841;BME280;58465;51.534;9.934;2023-02-05T00:30:28;102159.59;;;0.59;73.19
70841;BME280;58465;51.534;9.934;2023-02-05T00:32:53;102157.78;;;0.58;73.18
70841;BME280;58465;51.534;9.934;2023-02-05T00:35:19;102155.13;;;0.57;73.27
70841;BME280;58465;51.534;9.934;2023-02-05T00:37:44;102143.59;;;0.55;73.44
70841;BME280;58465;51.534;9.934;2023-02-05T00:40:09;102146.16;;;0.53;73.36
70841;BME280;58465;51.534;9.934;2023-02-05T00:42:35;102140.91;;;0.53;73.66
70841;BME280;58465;51.534;9.934;2023-02-05T00:45:00;102121.66;;;0.54;73.67
70841;BME280;58465;51.534;9.934;2023-02-05T00:47:25;102112.13;;;0.56;73.54
70841;BME280;58465;51.534;9.934;2023-02-05T00:49:51;102120.06;;;0.58;73.42
70841;BME280;58465;51.534;9.934;2023-02-05T00:52:16;102116.41;;;0.54;73.08
70841;BME280;58465;51.534;9.934;2023-02-05T00:54:41;102124.47;;;0.57;73.07
70841;BME280;58465;51.534;9.934;2023-02-05T00:57:06;102124.47;;;0.57;72.96
70841;BME280;58465;51.534;9.934;2023-02-05T00:59:32;102128.88;;;0.58;72.96
70841;BME280;58465;51.534;9.934;2023-02-05T01:01:57;102112.19;;;0.58;73.16
70841;BME280;58465;51.534;9.934;2023-02-05T01:04:23;102109.50;;;0.56;73.12
70841;BME280;58465;51.534;9.934;2023-02-05T01:06:48;102099.81;;;0.55;73.25
70841;BME280;58465;51.534;9.934;2023-02-05T01:09:13;102098.00;;;0.54;73.00
70841;BME280;58465;51.534;9.934;2023-02-05T01:11:38;102097.91;;;0.53;73.02
70841;BME280;58465;51.534;9.934;2023-02-05T01:14:03;102100.63;;;0.54;73.12
70841;BME280;58465;51.534;9.934;2023-02-05T01:16:29;102092.56;;;0.51;72.85
70841;BME280;58465;51.534;9.934;2023-02-05T01:18:54;102094.47;;;0.54;72.91
70841;BME280;58465;51.534;9.934;2023-02-05T01:21:21;102084.16;;;0.58;72.81
70841;BME280;58465;51.534;9.934;2023-02-05T01:23:49;102082.38;;;0.57;72.56
70841;BME280;58465;51.534;9.934;2023-02-05T01:26:14;102078.91;;;0.58;72.81
70841;BME280;58465;51.534;9.934;2023-02-05T01:28:39;102076.28;;;0.58;72.69
70841;BME280;58465;51.534;9.934;2023-02-05T01:31:04;102078.16;;;0.61;72.40
70841;BME280;58465;51.534;9.934;2023-02-05T01:33:30;102077.72;;;0.69;72.47
70841;BME280;58465;51.534;9.934;2023-02-05T01:35:55;102075.44;;;0.77;72.41
70841;BME280;58465;51.534;9.934;2023-02-05T01:38:20;102071.25;;;0.81;72.18
70841;BME280;58465;51.534;9.934;2023-02-05T01:40:46;102072.44;;;0.87;72.15
70841;BME280;58465;51.534;9.934;2023-02-05T01:43:13;102065.00;;;0.96;72.16
70841;BME280;58465;51.534;9.934;2023-02-05T01:45:59;102052.44;;;1.08;71.55
70841;BME280;58465;51.534;9.934;2023-02-05T01:48:33;102046.31;;;1.27;70.92
70841;BME280;58465;51.534;9.934;2023-02-05T01:51:03;102044.88;;;1.34;70.33
70841;BME280;58465;51.534;9.934;2023-02-05T01:53:31;102042.25;;;1.34;70.14
70841;BME280;58465;51.534;9.934;2023-02-05T01:57:01;102042.03;;;1.29;70.00
70841;BME280;58465;51.534;9.934;2023-02-05T01:59:22;102044.09;;;1.36;70.17
70841;BME280;58465;51.534;9.934;2023-02-05T02:01:49;102033.16;;;1.46;69.56
70841;BME280;58465;51.534;9.934;2023-02-05T02:04:23;102033.97;;;1.63;69.27
70841;BME280;58465;51.534;9.934;2023-02-05T02:06:54;102029.13;;;1.74;68.95
70841;BME280;58465;51.534;9.934;2023-02-05T02:09:19;102018.75;;;1.77;68.64
70841;BME280;58465;51.534;9.934;2023-02-05T02:11:44;102027.63;;;1.79;68.14
70841;BME280;58465;51.534;9.934;2023-02-05T02:14:10;102032.13;;;1.81;68.11
70841;BME280;58465;51.534;9.934;2023-02-05T02:16:37;102033.81;;;1.79;68.23
70841;BME280;58465;51.534;9.934;2023-02-05T02:19:08;102027.69;;;1.80;68.17
70841;BME280;58465;51.534;9.934;2023-02-05T02:21:57;102017.50;;;1.88;67.98
70841;BME280;58465;51.534;9.934;2023-02-05T02:27:30;102000.72;;;1.86;67.91
70841;BME280;58465;51.534;9.934;2023-02-05T02:30:08;102002.25;;;1.81;67.95
70841;BME280;58465;51.534;9.934;2023-02-05T02:32:41;101999.81;;;1.85;68.41
70841;BME280;58465;51.534;9.934;2023-02-05T02:35:31;101998.97;;;1.86;67.83
70841;BME280;58465;51.534;9.934;2023-02-05T02:38:05;102001.00;;;1.92;67.99
70841;BME280;58465;51.534;9.934;2023-02-05T02:40:51;101998.22;;;1.89;67.82
70841;BME280;58465;51.534;9.934;2023-02-05T02:45:52;101988.34;;;1.85;68.27
70841;BME280;58465;51.534;9.934;2023-02-05T02:48:22;101985.53;;;1.80;68.47
70841;BME280;58465;51.534;9.934;2023-02-05T02:50:51;101973.53;;;1.87;68.14
70841;BME280;58465;51.534;9.934;2023-02-05T02:53:27;101975.47;;;1.91;68.24
70841;BME280;58465;51.534;9.934;2023-02-05T02:55:54;101967.56;;;1.91;68.48
70841;BME280;58465;51.534;9.934;2023-02-05T02:58:29;101973.66;;;1.90;68.65
70841;BME280;58465;51.534;9.934;2023-02-05T03:00:57;101969.47;;;1.95;68.64
70841;BME280;58465;51.534;9.934;2023-02-05T03:03:25;101967.75;;;1.96;68.41
70841;BME280;58465;51.534;9.934;2023-02-05T03:05:53;101961.66;;;1.97;68.39
70841;BME280;58465;51.534;9.934;2023-02-05T03:08:25;101967.06;;;2.00;68.54
70841;BME280;58465;51.534;9.934;2023-02-05T03:10:57;101957.41;;;2.00;68.36
70841;BME280;58465;51.534;9.934;2023-02-05T03:13:24;101958.41;;;2.04;68.33
70841;BME280;58465;51.534;9.934;2023-02-05T03:15:50;101961.44;;;2.13;68.13
70841;BME280;58465;51.534;9.934;2023-02-05T03:18:16;101961.78;;;2.20;67.92
70841;BME280;58465;51.534;9.934;2023-02-05T03:20:55;101963.19;;;2.33;67.35
70841;BME280;58465;51.534;9.934;2023-02-05T03:23:21;101957.28;;;2.39;67.46
70841;BME280;58465;51.534;9.934;2023-02-05T03:25:47;101957.44;;;2.43;66.73
70841;BME280;58465;51.534;9.934;2023-02-05T03:28:12;101955.91;;;2.48;66.58
70841;BME280;58465;51.534;9.934;2023-02-05T03:30:51;101956.91;;;2.52;66.60
70841;BME280;58465;51.534;9.934;2023-02-05T03:33:33;101965.09;;;2.58;66.42
70841;BME280;58465;51.534;9.934;2023-02-05T03:39:11;101973.38;;;2.67;65.62
70841;BME280;58465;51.534;9.934;2023-02-05T03:41:53;101975.34;;;2.73;65.48
70841;BME280;58465;51.534;9.934;2023-02-05T03:47:00;101978.97;;;2.75;65.72
70841;BME280;58465;51.534;9.934;2023-02-05T03:52:30;101968.16;;;2.69;65.14
70841;BME280;58465;51.534;9.934;2023-02-05T03:55:08;101966.09;;;2.61;65.26
70841;BME280;58465;51.534;9.934;2023-02-05T03:58:01;101958.72;;;2.53;65.51
70841;BME280;58465;51.534;9.934;2023-02-05T04:00:28;101956.31;;;2.37;65.80
70841;BME280;58465;51.534;9.934;2023-02-05T04:02:54;101949.00;;;2.30;65.99
70841;BME280;58465;51.534;9.934;2023-02-05T04:05:19;101951.34;;;2.23;66.02
70841;BME280;58465;51.534;9.934;2023-02-05T04:07:47;101946.91;;;2.22;66.01
70841;BME280;58465;51.534;9.934;2023-02-05T04:10:13;101948.72;;;2.23;66.15
70841;BME280;58465;51.534;9.934;2023-02-05T04:12:38;101959.47;;;2.28;65.98
70841;BME280;58465;51.534;9.934;2023-02-05T04:15:03;101966.78;;;2.35;65.89
70841;BME280;58465;51.534;9.934;2023-02-05T04:17:29;101963.69;;;2.45;66.11
70841;BME280;58465;51.534;9.934;2023-02-05T04:19:54;101950.88;;;2.54;65.86
70841;BME280;58465;51.534;9.934;2023-02-05T04:22:19;101943.50;;;2.46;65.38
70841;BME280;58465;51.534;9.934;2023-02-05T04:24:44;101941.44;;;2.39;65.24
70841;BME280;58465;51.534;9.934;2023-02-05T04:27:10;101942.88;;;2.31;65.41
70841;BME280;58465;51.534;9.934;2023-02-05T04:29:35;101935.84;;;2.31;65.71
70841;BME280;58465;51.534;9.934;2023-02-05T04:32:00;101937.91;;;2.38;65.91
70841;BME280;58465;51.534;9.934;2023-02-05T04:34:26;101930.06;;;2.40;65.50
70841;BME280;58465;51.534;9.934;2023-02-05T04:36:51;101932.94;;;2.46;65.78
70841;BME280;58465;51.534;9.934;2023-02-05T04:39:16;101938.44;;;2.52;65.80
70841;BME280;58465;51.534;9.934;2023-02-05T04:41:41;101940.38;;;2.56;65.84
70841;BME280;58465;51.534;9.934;2023-02-05T04:44:06;101940.63;;;2.62;65.56
70841;BME280;58465;51.534;9.934;2023-02-05T04:46:32;101942.50;;;2.65;65.46
70841;BME280;58465;51.534;9.934;2023-02-05T04:48:57;101928.53;;;2.67;65.70
70841;BME280;58465;51.534;9.934;2023-02-05T04:51:22;101921.44;;;2.66;65.27
70841;BME280;58465;51.534;9.934;2023-02-05T04:53:48;101928.53;;;2.67;65.62
70841;BME280;58465;51.534;9.934;2023-02-05T04:56:15;101925.06;;;2.68;65.50
70841;BME280;58465;51.534;9.934;2023-02-05T04:58:41;101925.97;;;2.70;65.67
70841;BME280;58465;51.534;9.934;2023-02-05T05:01:14;101920.84;;;2.73;65.66
70841;BME280;58465;51.534;9.934;2023-02-05T05:03:41;101935.97;;;2.77;65.75
70841;BME280;58465;51.534;9.934;2023-02-05T05:06:06;101931.59;;;2.78;65.74
70841;BME280;58465;51.534;9.934;2023-02-05T05:08:32;101927.22;;;2.78;65.62
70841;BME280;58465;51.534;9.934;2023-02-05T05:10:57;101927.06;;;2.75;65.79
70841;BME280;58465;51.534;9.934;2023-02-05T05:13:22;101925.06;;;2.68;65.90
70841;BME280;58465;51.534;9.934;2023-02-05T05:15:55;101915.06;;;2.83;65.53
70841;BME280;58465;51.534;9.934;2023-02-05T05:18:20;101914.88;;;2.79;65.43
70841;BME280;58465;51.534;9.934;2023-02-05T05:20:46;101912.38;;;2.82;65.62
70841;BME280;58465;51.534;9.934;2023-02-05T05:23:11;101914.94;;;2.80;65.77
70841;BME280;58465;51.534;9.934;2023-02-05T05:25:43;101905.78;;;2.93;65.64
70841;BME280;58465;51.534;9.934;2023-02-05T05:28:09;101908.75;;;3.02;65.12
70841;BME280;58465;51.534;9.934;2023-02-05T05:30:37;101900.16;;;3.08;63.69
70841;BME280;58465;51.534;9.934;2023-02-05T05:33:03;101900.41;;;3.14;63.22
70841;BME280;58465;51.534;9.934;2023-02-05T05:35:29;101897.97;;;3.20;63.29
70841;BME280;58465;51.534;9.934;2023-02-05T05:37:57;101894.63;;;3.24;63.26
70841;BME280;58465;51.534;9.934;2023-02-05T05:40:23;101899.72;;;3.19;61.75
70841;BME280;58465;51.534;9.934;2023-02-05T05:43:11;101899.38;;;3.34;62.35
70841;BME280;58465;51.534;9.934;2023-02-05T05:45:55;101900.56;;;3.42;62.80
70841;BME280;58465;51.534;9.934;2023-02-05T05:48:20;101888.13;;;3.40;62.99
70841;BME280;58465;51.534;9.934;2023-02-05T05:50:45;101896.34;;;3.23;63.68
70841;BME280;58465;51.534;9.934;2023-02-05T05:53:11;101898.41;;;3.08;64.39
70841;BME280;58465;51.534;9.934;2023-02-05T05:55:36;101904.31;;;3.01;63.97
70841;BME280;58465;51.534;9.934;2023-02-05T05:58:01;101909.16;;;3.13;64.11
70841;BME280;58465;51.534;9.934;2023-02-05T06:00:26;101901.50;;;3.20;63.78
70841;BME280;58465;51.534;9.934;2023-02-05T06:02:51;101902.63;;;3.27;63.72
70841;BME280;58465;51.534;9.934;2023-02-05T06:05:17;101899.16;;;3.28;63.58
70841;BME280;58465;51.534;9.934;2023-02-05T06:07:42;101897.31;;;3.25;63.49
70841;BME280;58465;51.534;9.934;2023-02-05T06:10:07;101892.97;;;3.27;63.78
70841;BME280;58465;51.534;9.934;2023-02-05T06:12:33;101886.91;;;3.30;63.64
70841;BME280;58465;51.534;9.934;2023-02-05T06:14:58;101889.59;;;3.31;63.81
70841;BME280;58465;51.534;9.934;2023-02-05T06:17:23;101885.94;;;3.28;63.77
70841;BME280;58465;51.534;9.934;2023-02-05T06:19:48;101885.09;;;3.29;63.70
70841;BME280;58465;51.534;9.934;2023-02-05T06:22:14;101877.75;;;3.20;63.32
70841;BME280;58465;51.534;9.934;2023-02-05T06:24:39;101885.22;;;3.08;63.59
70841;BME280;58465;51.534;9.934;2023-02-05T06:27:04;101880.00;;;3.10;63.73
70841;BME280;58465;51.534;9.934;2023-02-05T06:29:29;101878.53;;;3.18;63.58
70841;BME280;58465;51.534;9.934;2023-02-05T06:31:55;101869.00;;;3.21;63.90
70841;BME280;58465;51.534;9.934;2023-02-05T06:34:20;101867.44;;;3.26;63.94
70841;BME280;58465;51.534;9.934;2023-02-05T06:36:45;101866.63;;;3.29;63.79
70841;BME280;58465;51.534;9.934;2023-02-05T06:39:11;101855.22;;;3.30;63.65
70841;BME280;58465;51.534;9.934;2023-02-05T06:41:36;101861.50;;;3.33;63.98
70841;BME280;58465;51.534;9.934;2023-02-05T06:44:01;101860.59;;;3.33;63.77
70841;BME280;58465;51.534;9.934;2023-02-05T06:46:27;101856.22;;;3.33;63.93
70841;BME280;58465;51.534;9.934;2023-02-05T06:48:53;101872.16;;;3.36;63.96
70841;BME280;58465;51.534;9.934;2023-02-05T06:51:18;101866.22;;;3.42;63.75
70841;BME280;58465;51.534;9.934;2023-02-05T06:53:43;101858.34;;;3.44;64.06
70841;BME280;58465;51.534;9.934;2023-02-05T06:56:08;101863.69;;;3.45;64.45
70841;BME280;58465;51.534;9.934;2023-02-05T06:58:34;101858.88;;;3.33;65.01
70841;BME280;58465;51.534;9.934;2023-02-05T07:01:00;101861.34;;;3.29;65.61
70841;BME280;58465;51.534;9.934;2023-02-05T07:03:26;101878.72;;;3.22;66.42
70841;BME280;58465;51.534;9.934;2023-02-05T07:05:51;101872.41;;;3.19;66.45
70841;BME280;58465;51.534;9.934;2023-02-05T07:08:16;101868.59;;;3.11;66.97
70841;BME280;58465;51.534;9.934;2023-02-05T07:10:42;101867.47;;;3.04;66.72
70841;BME280;58465;51.534;9.934;2023-02-05T07:13:07;101861.94;;;2.96;66.99
70841;BME280;58465;51.534;9.934;2023-02-05T07:15:35;101856.31;;;2.87;67.44
70841;BME280;58465;51.534;9.934;2023-02-05T07:18:01;101838.75;;;2.89;67.52
70841;BME280;58465;51.534;9.934;2023-02-05T07:20:26;101831.53;;;2.84;67.66
70841;BME280;58465;51.534;9.934;2023-02-05T07:22:51;101824.91;;;2.95;67.26
70841;BME280;58465;51.534;9.934;2023-02-05T07:25:17;101819.56;;;2.93;67.40
70841;BME280;58465;51.534;9.934;2023-02-05T07:27:42;101794.34;;;3.02;66.92
70841;BME280;58465;51.534;9.934;2023-02-05T07:30:08;101794.53;;;3.08;66.97
70841;BME280;58465;51.534;9.934;2023-02-05T07:32:33;101793.19;;;3.19;67.07
70841;BME280;58465;51.534;9.934;2023-02-05T07:34:58;101791.31;;;3.15;66.75
70841;BME280;58465;51.534;9.934;2023-02-05T07:37:23;101783.16;;;3.09;66.58
70841;BME280;58465;51.534;9.934;2023-02-05T07:39:49;101787.00;;;3.18;66.45
70841;BME280;58465;51.534;9.934;2023-02-05T07:42:14;101776.75;;;3.26;66.01
70841;BME280;58465;51.534;9.934;2023-02-05T07:44:39;101782.47;;;3.40;65.86
70841;BME280;58465;51.534;9.934;2023-02-05T07:47:05;101796.94;;;3.51;65.29
70841;BME280;58465;51.534;9.934;2023-02-05T07:49:30;101807.78;;;3.58;64.70
70841;BME280;58465;51.534;9.934;2023-02-05T07:51:55;101820.44;;;3.68;64.65
70841;BME280;58465;51.534;9.934;2023-02-05T07:54:20;101827.16;;;3.84;64.74
70841;BME280;58465;51.534;9.934;2023-02-05T07:56:46;101817.81;;;3.95;64.79
70841;BME280;58465;51.534;9.934;2023-02-05T07:59:11;101821.28;;;3.93;64.14
70841;BME280;58465;51.534;9.934;2023-02-05T08:01:36;101824.16;;;4.00;63.76
70841;BME280;58465;51.534;9.934;2023-02-05T08:04:02;101835.94;;;4.10;63.44
70841;BME280;58465;51.534;9.934;2023-02-05T08:06:27;101822.03;;;4.17;63.51
70841;BME280;58465;51.534;9.934;2023-02-05T08:08:52;101818.50;;;4.17;63.43
70841;BME280;58465;51.534;9.934;2023-02-05T08:11:19;101824.00;;;4.23;63.26
70841;BME280;58465;51.534;9.934;2023-02-05T08:13:45;101825.75;;;4.22;63.11
70841;BME280;58465;51.534;9.934;2023-02-05T08:16:11;101816.94;;;4.23;62.77
70841;BME280;58465;51.534;9.934;2023-02-05T08:18:36;101820.63;;;4.28;62.50
70841;BME280;58465;51.534;9.934;2023-02-05T08:21:02;101822.78;;;4.40;62.87
70841;BME280;58465;51.534;9.934;2023-02-05T08:23:27;101820.25;;;4.44;63.44
70841;BME280;58465;51.534;9.934;2023-02-05T08:25:58;101821.25;;;4.48;63.23
70841;BME280;58465;51.534;9.934;2023-02-05T08:28:26;101806.31;;;4.50;63.28
70841;BME280;58465;51.534;9.934;2023-02-05T08:30:51;101807.19;;;4.49;63.12
70841;BME280;58465;51.534;9.934;2023-02-05T08:33:17;101801.94;;;4.51;63.28
70841;BME280;58465;51.534;9.934;2023-02-05T08:35:42;101806.31;;;4.50;63.45
70841;BME280;58465;51.534;9.934;2023-02-05T08:38:07;101804.00;;;4.61;63.02
70841;BME280;58465;51.534;9.934;2023-02-05T08:40:33;101795.53;;;4.74;63.13
70841;BME280;58465;51.534;9.934;2023-02-05T08:42:58;101797.50;;;4.81;62.71
70841;BME280;58465;51.534;9.934;2023-02-05T08:45:25;101800.34;;;4.87;62.70
70841;BME280;58465;51.534;9.934;2023-02-05T08:47:50;101802.22;;;4.91;62.38
70841;BME280;58465;51.534;9.934;2023-02-05T08:50:16;101805.69;;;4.89;62.92
70841;BME280;58465;51.534;9.934;2023-02-05T08:52:41;101806.09;;;4.72;63.52
70841;BME280;58465;51.534;9.934;2023-02-05T08:55:07;101807.72;;;4.67;64.10
70841;BME280;58465;51.534;9.934;2023-02-05T08:57:32;101807.66;;;4.66;64.54
70841;BME280;58465;51.534;9.934;2023-02-05T08:59:58;101807.25;;;4.52;64.59
70841;BME280;58465;51.534;9.934;2023-02-05T09:02:24;101812.41;;;4.19;65.70
70841;BME280;58465;51.534;9.934;2023-02-05T09:04:49;101812.41;;;4.19;66.39
70841;BME280;58465;51.534;9.934;2023-02-05T09:07:15;101818.41;;;4.14;67.01
70841;BME280;58465;51.534;9.934;2023-02-05T09:09:41;101806.56;;;4.01;66.96
70841;BME280;58465;51.534;9.934;2023-02-05T09:12:06;101805.13;;;3.84;67.50
70841;BME280;58465;51.534;9.934;2023-02-05T09:14:32;101808.44;;;3.78;68.10
70841;BME280;58465;51.534;9.934;2023-02-05T09:17:02;101811.13;;;3.80;68.44
70841;BME280;58465;51.534;9.934;2023-02-05T09:19:27;101803.81;;;3.71;68.29
70841;BME280;58465;51.534;9.934;2023-02-05T09:21:53;101802.78;;;3.67;68.85
70841;BME280;58465;51.534;9.934;2023-02-05T09:24:18;101804.34;;;3.88;68.89
70841;BME280;58465;51.534;9.934;2023-02-05T09:26:43;101807.22;;;3.95;69.23
70841;BME280;58465;51.534;9.934;2023-02-05T09:29:09;101797.00;;;4.06;69.35
70841;BME280;58465;51.534;9.934;2023-02-05T09:31:34;101790.97;;;4.10;69.17
70841;BME280;58465;51.534;9.934;2023-02-05T09:34:01;101796.59;;;4.21;68.77
70841;BME280;58465;51.534;9.934;2023-02-05T09:36:26;101795.53;;;4.16;68.22
70841;BME280;58465;51.534;9.934;2023-02-05T09:38:51;101795.53;;;4.16;68.28
70841;BME280;58465;51.534;9.934;2023-02-05T09:42:00;101792.84;;;4.14;68.79
70841;BME280;58465;51.534;9.934;2023-02-05T09:47:22;101796.84;;;4.28;68.91
70841;BME280;58465;51.534;9.934;2023-02-05T09:50:20;101784.72;;;4.36;68.63
70841;BME280;58465;51.534;9.934;2023-02-05T09:52:54;101783.78;;;4.34;68.36
70841;BME280;58465;51.534;9.934;2023-02-05T09:55:24;101775.91;;;4.36;68.40
70841;BME280;58465;51.534;9.934;2023-02-05T09:57:52;101775.16;;;4.40;68.26
70841;BME280;58465;51.534;9.934;2023-02-05T10:00:23;101782.47;;;4.48;67.83
70841;BME280;58465;51.534;9.934;2023-02-05T10:03:00;101780.03;;;4.56;68.16
70841;BME280;58465;51.534;9.934;2023-02-05T10:05:29;101775.41;;;4.49;67.50
70841;BME280;58465;51.534;9.934;2023-02-05T10:10:48;101776.22;;;4.46;66.73
70841;BME280;58465;51.534;9.934;2023-02-05T10:16:14;101779.97;;;4.55;66.05
70841;BME280;58465;51.534;9.934;2023-02-05T10:21:48;101779.28;;;4.60;66.40
70841;BME280;58465;51.534;9.934;2023-02-05T10:24:39;101776.53;;;4.57;66.42
70841;BME280;58465;51.534;9.934;2023-02-05T10:27:21;101768.00;;;4.37;66.73
70841;BME280;58465;51.534;9.934;2023-02-05T10:32:24;101766.31;;;4.69;67.01
70841;BME280;58465;51.534;9.934;2023-02-05T10:34:56;101758.38;;;4.69;67.30
70841;BME280;58465;51.534;9.934;2023-02-05T10:37:39;101761.66;;;4.61;67.22
70841;BME280;58465;51.534;9.934;2023-02-05T10:40:16;101758.66;;;4.48;67.29
70841;BME280;58465;51.534;9.934;2023-02-05T10:42:48;101749.84;;;4.50;67.66
70841;BME280;58465;51.534;9.934;2023-02-05T10:45:18;101750.50;;;4.41;68.10
70841;BME280;58465;51.534;9.934;2023-02-05T10:48:21;101756.22;;;4.56;67.95
70841;BME280;58465;51.534;9.934;2023-02-05T10:51:05;101757.69;;;4.46;67.90
70841;BME280;58465;51.534;9.934;2023-02-05T10:53:32;101749.28;;;4.60;67.60
70841;BME280;58465;51.534;9.934;2023-02-05T10:55:59;101754.91;;;4.72;67.42
70841;BME280;58465;51.534;9.934;2023-02-05T10:58:46;101752.44;;;4.78;67.25
70841;BME280;58465;51.534;9.934;2023-02-05T11:01:21;101751.28;;;4.68;67.49
70841;BME280;58465;51.534;9.934;2023-02-05T11:03:51;101754.03;;;4.73;67.35
70841;BME280;58465;51.534;9.934;2023-02-05T11:06:19;101752.75;;;4.89;67.11
70841;BME280;58465;51.534;9.934;2023-02-05T11:08:45;101749.66;;;4.73;67.33
70841;BME280;58465;51.534;9.934;2023-02-05T11:11:30;101740.56;;;4.95;67.07
70841;BME280;58465;51.534;9.934;2023-02-05T11:14:01;101748.78;;;5.06;67.04
70841;BME280;58465;51.534;9.934;2023-02-05T11:16:37;101748.47;;;5.27;66.24
70841;BME280;58465;51.534;9.934;2023-02-05T11:19:03;101756.00;;;5.44;66.22
70841;BME280;58465;51.534;9.934;2023-02-05T11:22:04;101763.13;;;5.47;65.75
70841;BME280;58465;51.534;9.934;2023-02-05T11:24:35;101750.78;;;5.47;65.36
70841;BME280;58465;51.534;9.934;2023-02-05T11:27:23;101764.47;;;5.31;64.87
70841;BME280;58465;51.534;9.934;2023-02-05T11:29:49;101762.81;;;5.35;65.03
70841;BME280;58465;51.534;9.934;2023-02-05T11:32:36;101758.44;;;5.37;65.58
70841;BME280;58465;51.534;9.934;2023-02-05T11:35:24;101760.03;;;5.30;65.22
70841;BME280;58465;51.534;9.934;2023-02-05T11:40:50;101756.03;;;5.13;66.16
70841;BME280;58465;51.534;9.934;2023-02-05T11:43:23;101757.19;;;5.22;66.25
70841;BME280;58465;51.534;9.934;2023-02-05T11:45:52;101762.84;;;5.36;66.57
70841;BME280;58465;51.534;9.934;2023-02-05T11:50:52;101760.00;;;5.63;65.64
70841;BME280;58465;51.534;9.934;2023-02-05T11:53:18;101756.63;;;5.70;65.50
70841;BME280;58465;51.534;9.934;2023-02-05T11:55:44;101766.25;;;5.65;65.92
70841;BME280;58465;51.534;9.934;2023-02-05T11:58:22;101763.19;;;5.50;65.76
70841;BME280;58465;51.534;9.934;2023-02-05T12:01:02;101776.25;;;5.42;66.35
70841;BME280;58465;51.534;9.934;2023-02-05T12:03:30;101766.41;;;5.38;65.95
70841;BME280;58465;51.534;9.934;2023-02-05T12:06:17;101768.09;;;5.35;65.57
70841;BME280;58465;51.534;9.934;2023-02-05T12:08:54;101764.94;;;5.15;66.22
70841;BME280;58465;51.534;9.934;2023-02-05T12:11:51;101774.72;;;5.17;66.52
70841;BME280;58465;51.534;9.934;2023-02-05T12:20:22;101788.50;;;5.37;67.60
70841;BME280;58465;51.534;9.934;2023-02-05T12:22:59;101792.19;;;5.44;66.91
70841;BME280;58465;51.534;9.934;2023-02-05T12:29:37;101777.56;;;5.25;67.47
70841;BME280;58465;51.534;9.934;2023-02-05T12:31:52;101780.38;;;5.31;67.35
70841;BME280;58465;51.534;9.934;2023-02-05T12:37:44;101781.34;;;5.69;66.83
70841;BME280;58465;51.534;9.934;2023-02-05T12:40:19;101779.41;;;5.62;66.44
70841;BME280;58465;51.534;9.934;2023-02-05T12:43:29;101767.16;;;5.67;66.70
70841;BME280;58465;51.534;9.934;2023-02-05T12:46:19;101775.19;;;5.70;66.90
70841;BME280;58465;51.534;9.934;2023-02-05T12:49:20;101778.66;;;5.68;66.91
70841;BME280;58465;51.534;9.934;2023-02-05T12:52:07;101783.72;;;5.58;66.37
70841;BME280;58465;51.534;9.934;2023-02-05T12:54:50;101780.94;;;5.19;68.70
70841;BME280;58465;51.534;9.934;2023-02-05T12:57:22;101785.56;;;4.95;70.19
70841;BME280;58465;51.534;9.934;2023-02-05T13:00:32;101778.47;;;4.94;70.45
70841;BME280;58465;51.534;9.934;2023-02-05T13:05:51;101785.09;;;4.78;71.46
70841;BME280;58465;51.534;9.934;2023-02-05T13:08:28;101788.03;;;4.58;71.75
70841;BME280;58465;51.534;9.934;2023-02-05T13:11:04;101791.66;;;4.33;72.78
70841;BME280;58465;51.534;9.934;2023-02-05T13:13:51;101792.22;;;4.21;74.12
70841;BME280;58465;51.534;9.934;2023-02-05T13:16:18;101787.19;;;4.30;74.05
70841;BME280;58465;51.534;9.934;2023-02-05T13:21:52;101797.44;;;4.20;74.45
70841;BME280;58465;51.534;9.934;2023-02-05T13:24:55;101797.72;;;4.29;74.16
70841;BME280;58465;51.534;9.934;2023-02-05T13:27:54;101783.44;;;4.24;74.64
70841;BME280;58465;51.534;9.934;2023-02-05T13:30:43;101793.22;;;4.26;74.62
70841;BME280;58465;51.534;9.934;2023-02-05T13:33:10;101789.13;;;4.36;74.43
70841;BME280;58465;51.534;9.934;2023-02-05T13:46:39;101771.38;;;4.62;73.71
70841;BME280;58465;51.534;9.934;2023-02-05T13:49:28;101767.53;;;4.80;73.19
70841;BME280;58465;51.534;9.934;2023-02-05T13:52:13;101768.97;;;4.69;73.28
70841;BME280;58465;51.534;9.934;2023-02-05T14:00:40;101784.03;;;4.42;74.34
70841;BME280;58465;51.534;9.934;2023-02-05T14:03:07;101790.72;;;4.59;74.47
70841;BME280;58465;51.534;9.934;2023-02-05T14:05:38;101798.19;;;4.74;74.07
70841;BME280;58465;51.534;9.934;2023-02-05T14:08:05;101806.22;;;4.77;73.70
70841;BME280;58465;51.534;9.934;2023-02-05T14:10:34;101813.19;;;4.73;73.53
70841;BME280;58465;51.534;9.934;2023-02-05T14:13:26;101816.34;;;4.62;73.86
70841;BME280;58465;51.534;9.934;2023-02-05T14:23:59;101822.94;;;4.46;74.15
70841;BME280;58465;51.534;9.934;2023-02-05T14:26:45;101829.75;;;4.38;74.38
70841;BME280;58465;51.534;9.934;2023-02-05T14:29:41;101833.81;;;4.27;74.88
70841;BME280;58465;51.534;9.934;2023-02-05T14:32:11;101837.53;;;4.33;75.13
70841;BME280;58465;51.534;9.934;2023-02-05T14:37:02;101844.16;;;4.47;74.59